createdAt,value
2023-01-19T00:01:44.399Z,3.30
2023-01-19T00:04:12.406Z,2.60
2023-01-19T00:06:40.482Z,2.60
2023-01-19T00:09:08.486Z,2.10
2023-01-19T00:11:36.731Z,1.70
2023-01-19T00:14:05.205Z,1.70
2023-01-19T00:16:33.275Z,1.70
2023-01-19T00:19:01.367Z,1.60
2023-01-19T00:21:29.436Z,2.00
2023-01-19T00:23:57.459Z,1.50
2023-01-19T00:26:25.527Z,1.30
2023-01-19T00:28:53.609Z,1.40
2023-01-19T00:31:22.093Z,4.80
2023-01-19T00:33:51.665Z,5.40
2023-01-19T00:36:19.814Z,8.90
2023-01-19T00:38:47.844Z,8.40
2023-01-19T00:41:16.530Z,6.40
2023-01-19T00:53:07.962Z,3.70
2023-01-19T00:55:36.062Z,4.00
2023-01-19T00:58:04.191Z,3.30
2023-01-19T01:00:32.271Z,2.00
2023-01-19T01:03:00.896Z,2.50
2023-01-19T01:05:29.543Z,2.60
2023-01-19T01:07:57.815Z,3.80
2023-01-19T01:10:29.030Z,2.70
2023-01-19T01:12:58.656Z,2.40
2023-01-19T01:15:29.677Z,1.70
2023-01-19T01:17:57.828Z,1.20
2023-01-19T01:20:30.356Z,1.80
2023-01-19T01:22:59.038Z,2.30
2023-01-19T01:25:28.817Z,2.50
2023-01-19T01:27:56.905Z,2.80
2023-01-19T01:30:25.032Z,4.50
2023-01-19T01:32:53.054Z,5.30
2023-01-19T01:35:21.131Z,4.30
2023-01-19T01:37:49.230Z,4.70
2023-01-19T01:40:18.772Z,5.40
2023-01-19T01:42:47.062Z,4.40
2023-01-19T01:45:38.562Z,3.20
2023-01-19T01:48:06.659Z,3.90
2023-01-19T01:51:00.423Z,3.30
2023-01-19T01:53:32.952Z,2.00
2023-01-19T01:56:05.209Z,2.40
2023-01-19T01:58:34.431Z,2.70
2023-01-19T02:01:21.595Z,2.40
2023-01-19T02:03:50.363Z,2.50
2023-01-19T02:06:18.362Z,3.50
2023-01-19T02:09:29.276Z,2.90
2023-01-19T02:12:15.912Z,2.10
2023-01-19T02:14:44.002Z,2.80
2023-01-19T02:17:12.179Z,3.20
2023-01-19T02:19:43.606Z,2.50
2023-01-19T02:22:25.758Z,3.80
2023-01-19T02:24:54.029Z,3.60
2023-01-19T02:27:22.080Z,3.30
2023-01-19T02:29:50.132Z,4.00
2023-01-19T02:32:18.214Z,3.40
2023-01-19T02:34:46.410Z,2.90
2023-01-19T02:37:17.177Z,3.00
2023-01-19T02:39:52.910Z,2.20
2023-01-19T02:42:44.641Z,2.90
2023-01-19T02:45:15.588Z,2.80
2023-01-19T02:47:46.608Z,2.80
2023-01-19T02:50:39.134Z,2.60
2023-01-19T02:53:21.741Z,3.10
2023-01-19T02:55:58.159Z,2.90
2023-01-19T02:58:52.882Z,2.70
2023-01-19T03:01:54.232Z,2.50
2023-01-19T03:04:37.635Z,2.30
2023-01-19T03:07:14.899Z,2.70
2023-01-19T03:09:48.643Z,2.90
2023-01-19T03:12:42.309Z,2.50
2023-01-19T03:15:22.353Z,3.10
2023-01-19T03:17:53.162Z,3.20
2023-01-19T03:20:28.427Z,3.80
2023-01-19T03:23:03.445Z,3.80
2023-01-19T03:25:35.256Z,4.30
2023-01-19T03:28:04.495Z,3.30
2023-01-19T03:30:39.213Z,4.60
2023-01-19T03:33:21.812Z,5.80
2023-01-19T03:35:57.010Z,5.60
2023-01-19T03:38:27.330Z,3.60
2023-01-19T03:41:00.296Z,4.40
2023-01-19T03:43:31.610Z,4.50
2023-01-19T03:46:01.245Z,4.20
2023-01-19T03:48:29.366Z,1.30
2023-01-19T03:50:57.514Z,1.30
2023-01-19T03:53:25.501Z,1.20
2023-01-19T03:55:54.406Z,1.40
2023-01-19T04:00:50.590Z,1.40
2023-01-19T04:03:18.991Z,1.00
2023-01-19T04:05:47.040Z,1.50
2023-01-19T04:08:15.233Z,1.30
2023-01-19T04:10:43.333Z,1.60
2023-01-19T04:13:11.376Z,2.50
2023-01-19T04:15:39.644Z,2.40
2023-01-19T04:18:08.803Z,4.10
2023-01-19T04:20:37.472Z,8.40
2023-01-19T04:23:05.547Z,2.30
2023-01-19T04:25:33.758Z,3.90
2023-01-19T04:28:01.946Z,2.90
2023-01-19T04:30:30.009Z,3.20
2023-01-19T04:33:00.100Z,1.40
2023-01-19T04:35:28.807Z,1.70
2023-01-19T04:37:56.826Z,1.50
2023-01-19T04:40:25.008Z,1.10
2023-01-19T04:42:54.164Z,1.60
2023-01-19T04:45:22.186Z,1.60
2023-01-19T04:47:51.135Z,1.60
2023-01-19T04:52:48.031Z,1.50
2023-01-19T04:55:17.126Z,2.50
2023-01-19T04:57:45.631Z,2.00
2023-01-19T05:00:14.170Z,1.40
2023-01-19T05:02:44.289Z,1.60
2023-01-19T05:05:13.324Z,2.90
2023-01-19T05:07:43.598Z,1.20
2023-01-19T05:10:12.206Z,3.50
2023-01-19T05:12:40.498Z,1.80
2023-01-19T05:15:10.110Z,2.20
2023-01-19T05:17:38.477Z,5.50
2023-01-19T05:20:07.510Z,3.10
2023-01-19T05:22:35.529Z,2.50
2023-01-19T05:25:03.824Z,2.90
2023-01-19T05:27:31.920Z,3.10
2023-01-19T05:29:59.878Z,2.60
2023-01-19T05:32:28.132Z,2.50
2023-01-19T05:34:56.546Z,2.70
2023-01-19T05:37:24.652Z,2.60
2023-01-19T05:39:53.407Z,4.30
2023-01-19T05:42:21.556Z,2.90
2023-01-19T05:44:49.744Z,7.40
2023-01-19T05:47:17.789Z,4.00
2023-01-19T05:49:45.901Z,3.80
2023-01-19T05:52:14.009Z,5.70
2023-01-19T05:54:42.093Z,5.10
2023-01-19T05:57:10.951Z,10.40
2023-01-19T06:02:07.139Z,6.40
2023-01-19T06:04:35.562Z,5.50
2023-01-19T06:07:04.775Z,5.90
2023-01-19T06:09:33.768Z,3.90
2023-01-19T06:12:01.778Z,5.10
2023-01-19T06:14:30.359Z,5.10
2023-01-19T06:16:58.517Z,4.30
2023-01-19T06:19:26.562Z,3.90
2023-01-19T06:21:54.714Z,2.90
2023-01-19T06:24:24.104Z,3.70
2023-01-19T06:26:52.305Z,4.30
2023-01-19T06:29:20.544Z,4.10
2023-01-19T06:31:49.134Z,4.80
2023-01-19T06:34:18.254Z,13.50
2023-01-19T06:50:30.071Z,3.80
2023-01-19T06:52:58.693Z,5.20
2023-01-19T06:55:27.933Z,5.70
2023-01-19T06:57:58.797Z,5.50
2023-01-19T07:00:27.294Z,4.60
2023-01-19T07:02:55.563Z,3.40
2023-01-19T07:05:24.589Z,4.30
2023-01-19T07:07:57.078Z,4.60
2023-01-19T07:10:25.316Z,3.50
2023-01-19T07:12:53.474Z,3.00
2023-01-19T07:15:22.618Z,5.30
2023-01-19T07:17:50.655Z,5.40
2023-01-19T07:20:19.857Z,5.00
2023-01-19T07:22:49.005Z,8.40
2023-01-19T07:25:17.239Z,7.20
2023-01-19T07:27:45.343Z,10.00
2023-01-19T07:30:16.185Z,6.00
2023-01-19T07:32:44.260Z,5.60
2023-01-19T07:35:12.584Z,5.40
2023-01-19T07:37:40.681Z,5.30
2023-01-19T07:40:09.342Z,4.10
2023-01-19T07:42:38.104Z,4.70
2023-01-19T07:45:06.743Z,3.70
2023-01-19T07:47:34.895Z,5.50
2023-01-19T07:50:03.543Z,4.90
2023-01-19T07:52:31.960Z,14.20
2023-01-19T07:55:00.289Z,2.80
2023-01-19T07:57:28.772Z,4.40
2023-01-19T07:59:56.964Z,4.40
2023-01-19T08:02:26.030Z,3.50
2023-01-19T08:04:54.302Z,3.50
2023-01-19T08:07:22.608Z,2.90
2023-01-19T08:09:50.923Z,5.00
2023-01-19T08:12:19.105Z,2.40
2023-01-19T08:14:47.221Z,5.00
2023-01-19T08:17:15.266Z,7.40
2023-01-19T08:19:44.112Z,4.90
2023-01-19T08:22:12.411Z,4.20
2023-01-19T08:24:40.539Z,5.60
2023-01-19T08:27:13.673Z,5.10
2023-01-19T08:29:41.801Z,5.70
2023-01-19T08:32:10.971Z,4.80
2023-01-19T08:34:41.322Z,4.10
2023-01-19T08:37:10.074Z,4.90
2023-01-19T08:39:38.375Z,4.40
2023-01-19T08:42:06.518Z,6.10
2023-01-19T08:44:34.616Z,3.10
2023-01-19T08:47:02.847Z,6.40
2023-01-19T08:49:30.905Z,4.30
2023-01-19T08:51:59.264Z,2.50
2023-01-19T08:54:27.463Z,3.40
2023-01-19T08:56:55.703Z,3.10
2023-01-19T08:59:23.741Z,1.90
2023-01-19T09:01:52.057Z,3.60
2023-01-19T09:04:20.272Z,2.60
2023-01-19T09:06:48.959Z,5.80
2023-01-19T09:11:45.474Z,7.70
2023-01-19T09:14:14.228Z,3.20
2023-01-19T09:16:42.398Z,6.00
2023-01-19T09:19:10.575Z,3.50
2023-01-19T09:21:38.921Z,3.20
2023-01-19T09:24:07.377Z,1.80
2023-01-19T09:26:36.653Z,1.40
2023-01-19T09:29:04.829Z,2.90
2023-01-19T09:31:33.373Z,3.30
2023-01-19T09:34:01.633Z,3.50
2023-01-19T09:36:30.301Z,3.30
2023-01-19T09:38:58.586Z,2.20
2023-01-19T09:41:26.779Z,5.00
2023-01-19T09:44:00.356Z,4.90
2023-01-19T09:46:42.166Z,7.00
2023-01-19T09:49:22.023Z,5.90
2023-01-19T09:51:51.650Z,6.70
2023-01-19T09:54:36.342Z,4.90
2023-01-19T09:57:15.110Z,4.70
2023-01-19T09:59:47.896Z,4.50
2023-01-19T10:02:36.764Z,4.20
2023-01-19T10:05:21.773Z,4.00
2023-01-19T10:08:11.269Z,3.30
2023-01-19T10:10:45.301Z,4.60
2023-01-19T10:13:13.544Z,4.50
2023-01-19T10:15:47.846Z,3.60
2023-01-19T10:18:46.038Z,4.70
2023-01-19T10:21:33.599Z,5.40
2023-01-19T10:24:06.687Z,7.70
2023-01-19T10:26:42.932Z,10.30
2023-01-19T10:29:24.190Z,10.00
2023-01-19T10:31:55.714Z,7.20
2023-01-19T10:34:24.058Z,4.60
2023-01-19T10:37:02.614Z,3.60
2023-01-19T10:42:02.611Z,7.50
2023-01-19T10:44:36.594Z,3.70
2023-01-19T10:47:11.904Z,2.30
2023-01-19T10:49:44.708Z,3.90
2023-01-19T10:52:22.242Z,4.40
2023-01-19T10:54:50.505Z,4.10
2023-01-19T10:57:40.927Z,4.90
2023-01-19T11:00:40.109Z,6.10
2023-01-19T11:03:29.792Z,4.20
2023-01-19T11:06:13.851Z,7.30
2023-01-19T11:08:44.491Z,6.70
2023-01-19T11:11:14.128Z,7.80
2023-01-19T11:13:43.877Z,4.90
2023-01-19T11:16:35.287Z,4.90
2023-01-19T11:19:05.114Z,19.50
2023-01-19T11:21:33.600Z,7.40
2023-01-19T11:24:05.550Z,4.50
2023-01-19T11:27:03.204Z,4.40
2023-01-19T11:29:32.049Z,3.80
2023-01-19T11:37:18.769Z,3.10
2023-01-19T11:39:50.036Z,3.50
2023-01-19T11:42:19.208Z,4.20
2023-01-19T11:44:47.298Z,3.20
2023-01-19T11:47:38.954Z,2.80
2023-01-19T11:50:23.068Z,3.30
2023-01-19T11:53:07.539Z,6.00
2023-01-19T11:55:54.346Z,5.80
2023-01-19T11:58:24.035Z,3.90
2023-01-19T12:01:01.605Z,4.10
2023-01-19T12:03:44.349Z,5.00
2023-01-19T12:06:16.480Z,6.70
2023-01-19T12:08:51.782Z,10.10
2023-01-19T12:11:27.021Z,11.80
2023-01-19T12:13:55.250Z,11.20
2023-01-19T12:16:29.083Z,7.60
2023-01-19T12:19:10.978Z,7.70
2023-01-19T12:21:39.091Z,4.50
2023-01-19T12:24:39.675Z,4.90
2023-01-19T12:27:43.787Z,8.70
2023-01-19T12:30:23.103Z,4.90
2023-01-19T12:32:51.786Z,5.40
2023-01-19T12:35:56.203Z,5.00
2023-01-19T12:38:33.888Z,3.60
2023-01-19T12:41:22.294Z,2.60
2023-01-19T12:44:16.592Z,3.90
2023-01-19T12:46:52.503Z,4.90
2023-01-19T12:49:23.553Z,7.40
2023-01-19T12:52:13.288Z,4.70
2023-01-19T12:54:50.326Z,6.90
2023-01-19T12:57:24.978Z,7.10
2023-01-19T13:00:02.977Z,7.60
2023-01-19T13:02:42.548Z,9.90
2023-01-19T13:05:18.892Z,6.10
2023-01-19T13:08:02.511Z,6.80
2023-01-19T13:10:52.613Z,8.60
2023-01-19T13:13:28.131Z,3.50
2023-01-19T13:16:01.178Z,5.20
2023-01-19T13:18:39.638Z,7.10
2023-01-19T13:21:09.676Z,5.50
2023-01-19T13:23:50.372Z,10.30
2023-01-19T13:26:27.858Z,6.40
2023-01-19T13:29:07.191Z,5.60
2023-01-19T13:31:39.887Z,5.50
2023-01-19T13:34:21.153Z,7.10
2023-01-19T13:36:55.315Z,4.40
2023-01-19T13:39:28.903Z,3.40
2023-01-19T13:42:02.434Z,5.80
2023-01-19T13:44:52.301Z,5.60
2023-01-19T13:47:27.163Z,6.00
2023-01-19T13:49:59.009Z,7.00
2023-01-19T13:52:31.440Z,9.00
2023-01-19T13:55:03.802Z,3.90
2023-01-19T13:57:39.496Z,6.20
2023-01-19T14:00:16.616Z,6.50
2023-01-19T14:03:16.055Z,4.10
2023-01-19T14:05:44.867Z,4.40
2023-01-19T14:08:15.350Z,6.40
2023-01-19T14:10:56.517Z,5.20
2023-01-19T14:13:29.562Z,6.70
2023-01-19T14:16:06.480Z,9.00
2023-01-19T14:18:36.347Z,13.60
2023-01-19T14:21:14.396Z,6.00
2023-01-19T14:23:52.674Z,5.40
2023-01-19T14:26:39.653Z,4.10
2023-01-19T14:29:32.764Z,4.70
2023-01-19T14:32:28.158Z,7.30
2023-01-19T14:35:04.616Z,4.50
2023-01-19T14:37:35.710Z,4.20
2023-01-19T14:40:18.740Z,4.40
2023-01-19T14:43:08.589Z,5.00
2023-01-19T14:45:40.675Z,13.90
2023-01-19T14:48:19.215Z,7.00
2023-01-19T14:51:02.356Z,6.40
2023-01-19T14:53:38.383Z,6.40
2023-01-19T14:56:07.686Z,7.90
2023-01-19T14:58:36.566Z,6.50
2023-01-19T15:01:06.392Z,6.30
2023-01-19T15:03:49.313Z,7.30
2023-01-19T15:06:21.126Z,8.80
2023-01-19T15:08:50.558Z,9.20
2023-01-19T15:11:47.106Z,8.60
2023-01-19T15:14:17.617Z,9.70
2023-01-19T15:16:46.166Z,10.70
2023-01-19T15:19:17.031Z,10.80
2023-01-19T15:21:46.995Z,12.90
2023-01-19T15:24:17.748Z,17.20
2023-01-19T15:26:46.410Z,7.00
2023-01-19T15:29:26.337Z,5.60
2023-01-19T15:31:54.445Z,8.20
2023-01-19T15:34:22.694Z,10.00
2023-01-19T15:36:50.770Z,5.50
2023-01-19T15:39:19.041Z,8.40
2023-01-19T15:41:47.114Z,3.20
2023-01-19T15:44:15.164Z,8.60
2023-01-19T15:46:43.347Z,4.30
2023-01-19T15:49:11.470Z,4.80
2023-01-19T15:51:39.768Z,6.80
2023-01-19T15:54:16.536Z,23.30
2023-01-19T15:56:44.827Z,7.30
2023-01-19T15:59:13.117Z,7.60
2023-01-19T16:01:41.604Z,6.40
2023-01-19T16:06:40.040Z,10.90
2023-01-19T16:09:08.209Z,9.60
2023-01-19T16:11:38.464Z,9.30
2023-01-19T16:14:06.529Z,7.80
2023-01-19T16:16:34.737Z,10.90
2023-01-19T16:19:03.003Z,9.20
2023-01-19T16:21:31.085Z,8.60
2023-01-19T16:23:59.171Z,8.80
2023-01-19T16:26:30.642Z,9.30
2023-01-19T16:29:00.633Z,8.40
2023-01-19T16:31:29.362Z,11.40
2023-01-19T16:33:57.853Z,6.60
2023-01-19T16:36:29.005Z,7.40
2023-01-19T16:39:02.058Z,7.70
2023-01-19T16:41:30.155Z,8.40
2023-01-19T16:43:58.991Z,6.90
2023-01-19T16:49:02.249Z,9.10
2023-01-19T16:51:30.990Z,9.90
2023-01-19T16:53:59.511Z,9.90
2023-01-19T16:56:28.131Z,12.20
2023-01-19T16:58:58.013Z,9.10
2023-01-19T17:01:29.174Z,5.40
2023-01-19T17:03:57.655Z,4.50
2023-01-19T17:06:26.685Z,6.10
2023-01-19T17:08:55.255Z,10.40
2023-01-19T17:14:00.248Z,9.20
2023-01-19T17:16:30.366Z,6.10
2023-01-19T17:18:59.898Z,18.30
2023-01-19T17:21:28.778Z,21.70
2023-01-19T17:26:28.391Z,11.00
2023-01-19T17:29:01.749Z,12.80
2023-01-19T17:31:30.591Z,14.80
2023-01-19T17:34:00.275Z,13.70
2023-01-19T17:36:30.540Z,13.60
2023-01-19T17:39:00.838Z,10.50
2023-01-19T17:41:31.493Z,10.00
2023-01-19T17:44:00.919Z,8.10
2023-01-19T17:46:29.739Z,6.50
2023-01-19T17:51:32.083Z,4.80
2023-01-19T17:54:00.276Z,9.00
2023-01-19T17:56:32.410Z,7.90
2023-01-19T17:59:00.646Z,3.60
2023-01-19T18:01:33.724Z,3.70
2023-01-19T18:04:02.701Z,5.20
2023-01-19T18:06:30.879Z,6.80
2023-01-19T18:09:01.800Z,3.80
2023-01-19T18:11:29.915Z,3.80
2023-01-19T18:13:58.716Z,4.80
2023-01-19T18:16:29.585Z,5.00
2023-01-19T18:18:57.818Z,6.50
2023-01-19T18:21:30.586Z,5.10
2023-01-19T18:24:02.282Z,7.50
2023-01-19T18:26:32.460Z,4.70
2023-01-19T18:29:01.063Z,3.70
2023-01-19T18:31:29.192Z,4.00
2023-01-19T18:33:57.401Z,4.40
2023-01-19T18:36:26.219Z,3.70
2023-01-19T18:41:22.296Z,5.40
2023-01-19T18:43:52.068Z,6.70
2023-01-19T18:46:21.399Z,9.10
2023-01-19T18:48:49.708Z,13.40
2023-01-19T18:51:18.526Z,20.10
2023-01-19T18:53:46.812Z,13.20
2023-01-19T18:56:16.578Z,20.30
2023-01-19T18:58:44.969Z,20.00
2023-01-19T19:01:22.380Z,15.50
2023-01-19T19:03:51.772Z,18.20
2023-01-19T19:06:20.979Z,18.70
2023-01-19T19:08:53.250Z,19.70
2023-01-19T19:11:23.634Z,13.60
2023-01-19T19:13:57.879Z,3.30
2023-01-19T19:16:26.805Z,11.50
2023-01-19T19:21:25.448Z,12.60
2023-01-19T19:23:55.436Z,13.30
2023-01-19T19:26:24.800Z,8.90
2023-01-19T19:28:52.986Z,8.90
2023-01-19T19:31:23.165Z,9.70
2023-01-19T19:33:51.858Z,9.20
2023-01-19T19:38:50.088Z,7.40
2023-01-19T19:41:21.339Z,7.40
2023-01-19T19:43:50.119Z,8.60
2023-01-19T19:46:20.443Z,4.60
2023-01-19T19:48:49.186Z,2.70
2023-01-19T19:51:22.681Z,4.70
2023-01-19T19:53:52.623Z,3.80
2023-01-19T19:56:23.587Z,7.50
2023-01-19T19:58:54.713Z,6.10
2023-01-19T20:01:28.576Z,11.10
2023-01-19T20:04:00.048Z,13.20
2023-01-19T20:06:28.301Z,13.80
2023-01-19T20:08:56.958Z,9.40
2023-01-19T20:13:56.699Z,8.60
2023-01-19T20:16:25.520Z,7.20
2023-01-19T20:21:30.662Z,8.50
2023-01-19T20:24:18.324Z,10.00
2023-01-19T20:26:50.374Z,14.60
2023-01-19T20:29:20.076Z,13.00
2023-01-19T20:31:53.976Z,22.80
2023-01-19T20:34:24.961Z,23.60
2023-01-19T20:36:55.239Z,14.10
2023-01-19T20:39:24.944Z,1.70
2023-01-19T20:41:53.088Z,4.60
2023-01-19T20:44:24.050Z,3.00
2023-01-19T20:46:53.495Z,9.60
2023-01-19T20:49:22.216Z,6.00
2023-01-19T20:51:52.084Z,4.60
2023-01-19T20:54:26.332Z,4.20
2023-01-19T20:56:54.604Z,4.50
2023-01-19T20:59:23.792Z,8.10
2023-01-19T21:01:52.470Z,6.10
2023-01-19T21:06:48.739Z,2.80
2023-01-19T21:09:18.633Z,3.50
2023-01-19T21:11:46.870Z,3.80
2023-01-19T21:14:14.954Z,7.00
2023-01-19T21:16:43.104Z,6.40
2023-01-19T21:19:12.144Z,7.10
2023-01-19T21:21:40.179Z,6.70
2023-01-19T21:24:10.424Z,3.60
2023-01-19T21:26:38.568Z,3.70
2023-01-19T21:29:06.855Z,5.60
2023-01-19T21:31:35.117Z,7.10
2023-01-19T21:34:03.338Z,3.50
2023-01-19T21:36:31.537Z,3.40
2023-01-19T21:39:05.049Z,4.00
2023-01-19T21:41:34.926Z,4.90
2023-01-19T21:44:03.079Z,4.70
2023-01-19T21:46:33.144Z,6.50
2023-01-19T21:49:04.188Z,3.30
2023-01-19T21:51:34.880Z,5.00
2023-01-19T21:54:05.255Z,8.10
2023-01-19T21:56:35.096Z,6.30
2023-01-19T21:59:04.402Z,11.30
2023-01-19T22:01:33.661Z,7.50
2023-01-19T22:04:01.947Z,12.40
2023-01-19T22:06:30.139Z,10.50
2023-01-19T22:08:58.605Z,5.40
2023-01-19T22:11:28.077Z,9.50
2023-01-19T22:13:56.626Z,9.10
2023-01-19T22:16:24.759Z,9.00
2023-01-19T22:18:59.694Z,6.80
2023-01-19T22:21:35.141Z,7.70
2023-01-19T22:24:05.068Z,5.90
2023-01-19T22:26:34.497Z,6.60
2023-01-19T22:29:04.443Z,11.20
2023-01-19T22:31:33.018Z,8.30
2023-01-19T22:34:01.105Z,8.00
2023-01-19T22:36:35.688Z,12.50
2023-01-19T22:39:09.278Z,17.50
2023-01-19T22:41:40.930Z,11.70
2023-01-19T22:44:12.906Z,12.70
2023-01-19T22:46:41.069Z,11.30
2023-01-19T22:49:12.753Z,7.90
2023-01-19T22:51:41.534Z,9.50
2023-01-19T22:56:39.279Z,5.50
2023-01-19T22:59:07.763Z,6.70
2023-01-19T23:01:41.527Z,4.00
2023-01-19T23:04:13.253Z,5.10
2023-01-19T23:06:43.294Z,9.80
2023-01-19T23:09:14.252Z,8.90
2023-01-19T23:11:45.186Z,8.70
2023-01-19T23:14:16.886Z,7.90
2023-01-19T23:16:47.358Z,7.70
2023-01-19T23:19:17.384Z,8.40
2023-01-19T23:21:46.041Z,9.10
2023-01-19T23:24:14.058Z,9.50
2023-01-19T23:26:42.207Z,9.70
2023-01-19T23:29:13.862Z,9.40
2023-01-19T23:31:47.556Z,10.40
2023-01-19T23:34:17.064Z,10.70
2023-01-19T23:36:45.741Z,8.50
2023-01-19T23:39:17.117Z,9.30
2023-01-19T23:41:45.903Z,9.00
2023-01-19T23:46:41.948Z,11.40
2023-01-19T23:49:09.966Z,11.80
2023-01-19T23:51:39.720Z,12.50
2023-01-19T23:54:08.101Z,12.30
2023-01-19T23:56:37.735Z,15.50
2023-01-19T23:59:12.052Z,12.40
